createdAt,value
2022-09-16T00:00:04.122Z,12.23
2022-09-16T00:02:39.870Z,12.19
2022-09-16T00:05:12.168Z,12.16
2022-09-16T00:07:43.647Z,12.14
2022-09-16T00:10:15.738Z,12.12
2022-09-16T00:12:47.223Z,12.06
2022-09-16T00:15:19.129Z,12.01
2022-09-16T00:17:50.632Z,12.04
2022-09-16T00:20:22.462Z,11.99
2022-09-16T00:22:53.973Z,12.00
2022-09-16T00:25:25.838Z,11.97
2022-09-16T00:27:57.322Z,11.89
2022-09-16T00:30:29.277Z,11.84
2022-09-16T00:33:00.766Z,11.80
2022-09-16T00:35:32.597Z,11.81
2022-09-16T00:38:04.089Z,11.78
2022-09-16T00:40:35.946Z,11.77
2022-09-16T00:43:07.751Z,11.71
2022-09-16T00:45:39.275Z,11.71
2022-09-16T00:48:13.050Z,11.65
2022-09-16T00:50:44.593Z,11.66
2022-09-16T00:53:16.133Z,11.64
2022-09-16T00:55:47.631Z,11.62
2022-09-16T00:58:19.450Z,11.60
2022-09-16T01:00:51.052Z,11.61
2022-09-16T01:03:22.961Z,11.54
2022-09-16T01:05:54.450Z,11.54
2022-09-16T01:08:26.040Z,11.50
2022-09-16T01:10:58.008Z,11.47
2022-09-16T01:13:30.043Z,11.44
2022-09-16T01:16:01.589Z,11.43
2022-09-16T01:18:33.523Z,11.44
2022-09-16T01:21:05.074Z,11.41
2022-09-16T01:23:37.274Z,11.41
2022-09-16T01:26:08.769Z,11.38
2022-09-16T01:28:40.662Z,11.34
2022-09-16T01:31:12.186Z,11.31
2022-09-16T01:33:43.979Z,11.27
2022-09-16T01:36:15.455Z,11.30
2022-09-16T01:38:47.380Z,11.27
2022-09-16T01:41:18.890Z,11.25
2022-09-16T01:43:55.037Z,11.27
2022-09-16T01:46:26.559Z,11.25
2022-09-16T01:48:58.604Z,11.20
2022-09-16T01:51:30.101Z,11.24
2022-09-16T01:54:03.568Z,11.19
2022-09-16T01:56:35.112Z,11.21
2022-09-16T01:59:06.953Z,11.16
2022-09-16T02:01:38.515Z,11.17
2022-09-16T02:04:10.434Z,11.15
2022-09-16T02:06:43.976Z,11.14
2022-09-16T02:09:15.894Z,11.13
2022-09-16T02:11:47.416Z,11.11
2022-09-16T02:14:19.461Z,11.14
2022-09-16T02:16:50.942Z,11.12
2022-09-16T02:19:22.839Z,11.13
2022-09-16T02:21:54.338Z,11.12
2022-09-16T02:24:26.169Z,11.14
2022-09-16T02:27:00.657Z,11.14
2022-09-16T02:29:32.472Z,11.14
2022-09-16T02:32:04.023Z,11.09
2022-09-16T02:34:35.897Z,11.09
2022-09-16T02:37:07.413Z,11.09
2022-09-16T02:39:39.287Z,11.08
2022-09-16T02:42:10.781Z,11.04
2022-09-16T02:44:42.628Z,11.04
2022-09-16T02:47:14.145Z,11.04
2022-09-16T02:49:46.124Z,11.00
2022-09-16T02:52:17.622Z,10.97
2022-09-16T02:54:49.630Z,10.99
2022-09-16T02:57:21.112Z,10.93
2022-09-16T02:59:53.238Z,10.90
2022-09-16T03:02:24.750Z,10.88
2022-09-16T03:04:57.496Z,10.86
2022-09-16T03:07:29.000Z,10.76
2022-09-16T03:10:00.831Z,10.77
2022-09-16T03:12:32.313Z,10.76
2022-09-16T03:15:04.134Z,10.74
2022-09-16T03:17:35.702Z,10.73
2022-09-16T03:20:07.496Z,10.75
2022-09-16T03:22:40.223Z,10.77
2022-09-16T03:25:11.736Z,10.83
2022-09-16T03:27:43.383Z,10.88
2022-09-16T03:30:14.880Z,10.88
2022-09-16T03:32:46.696Z,10.93
2022-09-16T03:35:18.262Z,10.92
2022-09-16T03:37:50.297Z,10.94
2022-09-16T03:40:22.015Z,11.02
2022-09-16T03:42:53.984Z,11.05
2022-09-16T03:45:25.465Z,11.03
2022-09-16T03:47:57.271Z,11.06
2022-09-16T03:50:28.776Z,11.08
2022-09-16T03:53:00.657Z,11.03
2022-09-16T03:55:32.156Z,11.05
2022-09-16T03:58:04.207Z,11.03
2022-09-16T04:00:36.049Z,11.01
2022-09-16T04:03:07.931Z,11.02
2022-09-16T04:05:39.485Z,11.09
2022-09-16T04:08:11.332Z,11.09
2022-09-16T04:10:42.820Z,11.05
2022-09-16T04:13:14.662Z,11.07
2022-09-16T04:15:46.204Z,11.16
2022-09-16T04:18:18.134Z,11.07
2022-09-16T04:20:49.634Z,11.06
2022-09-16T04:23:21.471Z,11.07
2022-09-16T04:25:52.993Z,11.03
2022-09-16T04:28:24.866Z,11.01
2022-09-16T04:30:56.582Z,11.04
2022-09-16T04:33:28.498Z,11.08
2022-09-16T04:35:59.996Z,11.07
2022-09-16T04:38:31.816Z,11.11
2022-09-16T04:41:03.299Z,11.09
2022-09-16T04:43:35.223Z,11.04
2022-09-16T04:46:06.943Z,11.05
2022-09-16T04:48:38.883Z,11.01
2022-09-16T04:51:10.397Z,10.99
2022-09-16T04:53:44.063Z,10.94
2022-09-16T04:56:15.980Z,10.98
2022-09-16T04:58:47.861Z,10.99
2022-09-16T05:01:19.391Z,11.04
2022-09-16T05:03:51.306Z,11.13
2022-09-16T05:06:22.893Z,11.05
2022-09-16T05:08:54.902Z,11.08
2022-09-16T05:11:26.435Z,11.05
2022-09-16T05:13:58.915Z,11.06
2022-09-16T05:16:30.639Z,11.04
2022-09-16T05:19:04.933Z,10.98
2022-09-16T05:21:36.642Z,10.95
2022-09-16T05:24:09.017Z,10.96
2022-09-16T05:26:41.910Z,11.03
2022-09-16T05:29:13.430Z,11.12
2022-09-16T05:31:47.191Z,11.19
2022-09-16T05:34:19.111Z,11.25
2022-09-16T05:36:53.859Z,11.33
2022-09-16T05:39:26.592Z,11.38
2022-09-16T05:41:58.370Z,11.45
2022-09-16T05:44:30.338Z,11.52
2022-09-16T05:47:02.326Z,11.50
2022-09-16T05:49:34.951Z,11.56
2022-09-16T05:52:06.456Z,11.74
2022-09-16T05:54:38.431Z,11.82
2022-09-16T05:57:10.260Z,11.90
2022-09-16T05:59:41.758Z,11.89
2022-09-16T06:02:13.650Z,11.85
2022-09-16T06:04:45.498Z,11.99
2022-09-16T06:07:17.755Z,12.02
2022-09-16T06:09:49.400Z,12.08
2022-09-16T06:12:21.431Z,12.23
2022-09-16T06:14:52.947Z,12.40
2022-09-16T06:17:24.943Z,12.39
2022-09-16T06:19:56.522Z,12.22
2022-09-16T06:22:28.193Z,12.65
2022-09-16T06:24:59.672Z,12.81
2022-09-16T06:27:31.496Z,12.93
2022-09-16T06:30:03.016Z,13.11
2022-09-16T06:32:34.799Z,13.28
2022-09-16T06:35:06.286Z,13.61
2022-09-16T06:37:38.166Z,13.41
2022-09-16T06:40:09.997Z,13.52
2022-09-16T06:42:41.775Z,13.30
2022-09-16T06:45:13.290Z,13.17
2022-09-16T06:47:45.231Z,13.53
2022-09-16T06:50:16.736Z,13.49
2022-09-16T06:52:48.743Z,13.70
2022-09-16T06:55:20.277Z,13.85
2022-09-16T06:57:52.170Z,13.96
2022-09-16T07:00:23.709Z,14.02
2022-09-16T07:02:55.582Z,14.20
2022-09-16T07:05:27.075Z,14.57
2022-09-16T07:07:58.922Z,14.28
2022-09-16T07:10:30.790Z,14.03
2022-09-16T07:13:02.823Z,14.03
2022-09-16T07:15:39.298Z,14.08
2022-09-16T07:18:22.580Z,13.93
2022-09-16T07:20:54.096Z,13.80
2022-09-16T07:23:25.581Z,14.61
2022-09-16T07:25:57.396Z,14.75
2022-09-16T07:28:28.887Z,14.60
2022-09-16T07:31:00.792Z,15.41
2022-09-16T07:33:33.318Z,16.04
2022-09-16T07:36:05.348Z,15.70
2022-09-16T07:38:36.899Z,15.10
2022-09-16T07:41:08.531Z,14.78
2022-09-16T07:43:40.342Z,14.85
2022-09-16T07:46:12.275Z,14.82
2022-09-16T07:48:43.863Z,14.84
2022-09-16T07:51:15.415Z,14.48
2022-09-16T07:53:47.008Z,14.77
2022-09-16T07:56:19.050Z,14.43
2022-09-16T07:58:50.555Z,14.57
2022-09-16T08:01:22.140Z,14.47
2022-09-16T08:03:53.664Z,14.81
2022-09-16T08:06:25.157Z,14.89
2022-09-16T08:08:59.779Z,14.94
2022-09-16T08:11:37.348Z,15.40
2022-09-16T08:14:08.843Z,15.29
2022-09-16T08:16:40.401Z,15.80
2022-09-16T08:19:11.924Z,15.82
2022-09-16T08:21:43.436Z,15.41
2022-09-16T08:24:16.359Z,15.40
2022-09-16T08:26:48.232Z,15.24
2022-09-16T08:29:19.841Z,15.61
2022-09-16T08:31:51.841Z,16.02
2022-09-16T08:34:23.374Z,16.12
2022-09-16T08:36:55.338Z,16.71
2022-09-16T08:39:26.872Z,17.10
2022-09-16T08:42:00.454Z,16.91
2022-09-16T08:44:31.946Z,16.22
2022-09-16T08:47:03.831Z,16.40
2022-09-16T08:49:35.369Z,17.01
2022-09-16T08:52:07.296Z,17.17
2022-09-16T08:54:38.800Z,17.64
2022-09-16T08:57:10.597Z,17.44
2022-09-16T08:59:42.647Z,17.99
2022-09-16T09:02:15.097Z,18.71
2022-09-16T09:04:46.915Z,18.12
2022-09-16T09:07:18.922Z,17.70
2022-09-16T09:09:50.424Z,16.31
2022-09-16T09:12:22.502Z,17.44
2022-09-16T09:14:54.475Z,18.01
2022-09-16T09:17:26.432Z,18.54
2022-09-16T09:19:58.143Z,17.85
2022-09-16T09:22:30.018Z,18.09
2022-09-16T09:25:01.511Z,17.45
2022-09-16T09:27:33.347Z,18.04
2022-09-16T09:30:05.124Z,17.44
2022-09-16T09:32:48.419Z,17.79
2022-09-16T09:35:20.324Z,17.36
2022-09-16T09:37:52.183Z,18.38
2022-09-16T09:40:23.860Z,19.32
2022-09-16T09:42:55.748Z,20.17
2022-09-16T09:45:27.303Z,20.33
2022-09-16T09:47:59.167Z,20.50
2022-09-16T09:50:30.765Z,20.29
2022-09-16T09:53:02.704Z,19.38
2022-09-16T09:55:34.233Z,19.65
2022-09-16T09:58:06.126Z,19.60
2022-09-16T10:00:37.644Z,18.94
2022-09-16T10:03:09.984Z,18.58
2022-09-16T10:05:41.486Z,19.75
2022-09-16T10:08:16.435Z,19.86
2022-09-16T10:10:49.109Z,18.79
2022-09-16T10:13:20.632Z,18.31
2022-09-16T10:15:55.623Z,18.53
2022-09-16T10:18:27.545Z,17.95
2022-09-16T10:20:59.354Z,17.90
2022-09-16T10:23:30.945Z,17.96
2022-09-16T10:26:02.830Z,19.26
2022-09-16T10:28:34.318Z,19.36
2022-09-16T10:31:06.227Z,18.62
2022-09-16T10:33:37.761Z,18.38
2022-09-16T10:36:09.577Z,18.25
2022-09-16T10:38:41.146Z,17.98
2022-09-16T10:41:13.048Z,18.10
2022-09-16T10:43:44.538Z,19.04
2022-09-16T10:46:16.419Z,19.00
2022-09-16T10:48:47.942Z,18.45
2022-09-16T10:51:19.857Z,18.01
2022-09-16T10:53:51.683Z,17.77
2022-09-16T10:56:23.715Z,17.61
2022-09-16T10:58:55.239Z,17.70
2022-09-16T11:01:28.023Z,18.60
2022-09-16T11:03:59.885Z,18.02
2022-09-16T11:06:31.500Z,17.59
2022-09-16T11:09:03.010Z,17.18
2022-09-16T11:11:34.920Z,17.28
2022-09-16T11:14:06.435Z,18.19
2022-09-16T11:16:38.381Z,18.37
2022-09-16T11:19:10.130Z,19.64
2022-09-16T11:21:41.626Z,18.69
2022-09-16T11:24:13.133Z,19.58
2022-09-16T11:26:44.933Z,18.89
2022-09-16T11:29:16.437Z,18.61
2022-09-16T11:31:48.523Z,19.09
2022-09-16T11:34:20.651Z,19.21
2022-09-16T11:36:52.511Z,18.60
2022-09-16T11:39:24.029Z,18.18
2022-09-16T11:41:55.925Z,18.35
2022-09-16T11:44:27.705Z,18.55
2022-09-16T11:46:59.619Z,19.02
2022-09-16T11:49:31.150Z,19.15
2022-09-16T11:52:05.156Z,20.15
2022-09-16T11:54:36.848Z,20.25
2022-09-16T11:57:10.830Z,20.15
2022-09-16T11:59:44.701Z,20.25
2022-09-16T12:02:16.597Z,20.18
2022-09-16T12:04:48.221Z,19.21
2022-09-16T12:07:20.206Z,18.67
2022-09-16T12:09:51.685Z,18.94
2022-09-16T12:12:23.662Z,18.70
2022-09-16T12:14:55.734Z,18.52
2022-09-16T12:17:28.153Z,19.22
2022-09-16T12:19:59.635Z,19.81
2022-09-16T12:22:31.533Z,20.45
2022-09-16T12:25:03.018Z,20.48
2022-09-16T12:27:35.187Z,20.54
2022-09-16T12:30:06.775Z,19.53
2022-09-16T12:32:38.638Z,19.85
2022-09-16T12:35:10.126Z,19.78
2022-09-16T12:37:41.949Z,20.15
2022-09-16T12:40:13.531Z,20.52
2022-09-16T12:42:46.724Z,19.90
2022-09-16T12:45:18.330Z,18.96
2022-09-16T12:47:50.176Z,18.77
2022-09-16T12:50:21.654Z,18.25
2022-09-16T12:52:55.006Z,18.35
2022-09-16T12:55:26.832Z,17.99
2022-09-16T12:57:58.697Z,17.42
2022-09-16T13:00:30.175Z,18.39
2022-09-16T13:03:02.055Z,19.01
2022-09-16T13:05:33.807Z,19.13
2022-09-16T13:08:05.729Z,19.49
2022-09-16T13:13:29.081Z,19.87
2022-09-16T13:16:00.638Z,20.03
2022-09-16T13:18:33.449Z,20.03
2022-09-16T13:21:05.315Z,20.40
2022-09-16T13:23:36.817Z,21.06
2022-09-16T13:26:08.735Z,20.73
2022-09-16T13:28:40.657Z,20.60
2022-09-16T13:31:13.018Z,20.56
2022-09-16T13:33:44.637Z,20.17
2022-09-16T13:36:16.963Z,21.17
2022-09-16T13:38:49.791Z,21.53
2022-09-16T13:41:21.608Z,21.03
2022-09-16T13:43:53.387Z,20.63
2022-09-16T13:46:25.269Z,20.21
2022-09-16T13:48:56.781Z,21.01
2022-09-16T13:51:30.836Z,20.07
2022-09-16T13:54:05.965Z,19.26
2022-09-16T13:56:37.846Z,18.89
2022-09-16T13:59:09.389Z,18.89
2022-09-16T14:01:58.778Z,18.76
2022-09-16T14:04:31.257Z,19.54
2022-09-16T14:07:03.219Z,20.90
2022-09-16T14:09:34.729Z,21.31
2022-09-16T14:12:06.544Z,20.59
2022-09-16T14:14:53.396Z,19.77
2022-09-16T14:17:25.277Z,20.58
2022-09-16T14:19:56.808Z,20.40
2022-09-16T14:22:29.231Z,19.84
2022-09-16T14:25:06.508Z,20.06
2022-09-16T14:27:44.968Z,20.22
2022-09-16T14:30:17.254Z,20.22
2022-09-16T14:32:49.322Z,19.74
2022-09-16T14:35:21.017Z,20.44
2022-09-16T14:37:52.510Z,20.59
2022-09-16T14:40:24.049Z,20.47
2022-09-16T14:42:55.545Z,20.58
2022-09-16T14:45:27.046Z,20.58
2022-09-16T14:47:58.719Z,21.02
2022-09-16T14:50:30.329Z,21.60
2022-09-16T14:53:01.850Z,21.28
2022-09-16T14:55:36.467Z,20.53
2022-09-16T14:58:07.951Z,20.68
2022-09-16T15:00:39.761Z,21.05
2022-09-16T15:03:11.239Z,21.68
2022-09-16T15:05:43.108Z,21.91
2022-09-16T15:08:14.975Z,21.69
2022-09-16T15:10:54.181Z,21.74
2022-09-16T15:13:25.762Z,21.06
2022-09-16T15:15:57.797Z,21.00
2022-09-16T15:18:29.314Z,20.29
2022-09-16T15:21:01.288Z,20.27
2022-09-16T15:23:32.827Z,19.91
2022-09-16T15:26:04.675Z,19.51
2022-09-16T15:28:36.478Z,19.21
2022-09-16T15:31:10.291Z,18.99
2022-09-16T15:33:41.931Z,18.30
2022-09-16T15:36:14.228Z,18.49
2022-09-16T15:38:45.722Z,18.36
2022-09-16T15:41:17.717Z,18.45
2022-09-16T15:43:49.537Z,18.42
2022-09-16T15:46:21.962Z,18.35
2022-09-16T15:48:55.851Z,18.26
2022-09-16T15:51:29.356Z,17.96
2022-09-16T15:54:01.541Z,18.26
2022-09-16T15:56:33.307Z,18.11
2022-09-16T15:59:05.334Z,17.79
2022-09-16T16:01:37.449Z,17.67
2022-09-16T16:04:09.478Z,17.64
2022-09-16T16:06:41.062Z,17.37
2022-09-16T16:09:12.881Z,17.26
2022-09-16T16:11:44.381Z,17.17
2022-09-16T16:14:16.327Z,17.13
2022-09-16T16:17:11.130Z,17.00
2022-09-16T16:19:41.700Z,17.02
2022-09-16T16:22:13.996Z,17.02
2022-09-16T16:24:46.340Z,16.83
2022-09-16T16:27:17.844Z,16.94
2022-09-16T16:29:49.852Z,16.82
2022-09-16T16:32:21.439Z,16.80
2022-09-16T16:34:54.958Z,16.80
2022-09-16T16:37:46.521Z,16.84
2022-09-16T16:40:18.277Z,16.91
2022-09-16T16:42:49.849Z,16.84
2022-09-16T16:45:21.708Z,16.79
2022-09-16T16:47:53.231Z,16.78
2022-09-16T16:50:25.107Z,16.73
2022-09-16T16:52:56.672Z,16.67
2022-09-16T16:55:28.484Z,16.46
2022-09-16T16:58:00.272Z,16.28
2022-09-16T17:00:31.834Z,16.15
2022-09-16T17:03:03.779Z,16.01
2022-09-16T17:05:35.325Z,15.92
2022-09-16T17:08:07.212Z,15.79
2022-09-16T17:10:38.783Z,15.79
2022-09-16T17:13:10.609Z,15.64
2022-09-16T17:15:42.151Z,15.59
2022-09-16T17:18:14.013Z,15.50
2022-09-16T17:20:45.494Z,15.33
2022-09-16T17:23:17.310Z,15.23
2022-09-16T17:25:48.823Z,15.11
2022-09-16T17:28:20.657Z,15.09
2022-09-16T17:30:52.207Z,14.98
2022-09-16T17:33:24.044Z,14.85
2022-09-16T17:35:55.556Z,14.80
2022-09-16T17:38:27.354Z,14.72
2022-09-16T17:40:58.880Z,14.65
2022-09-16T17:43:32.644Z,14.58
2022-09-16T17:46:04.414Z,14.46
2022-09-16T17:48:37.790Z,14.44
2022-09-16T17:51:09.293Z,14.37
2022-09-16T17:53:41.298Z,14.32
2022-09-16T17:56:12.851Z,14.25
2022-09-16T17:58:44.718Z,14.19
2022-09-16T18:01:16.268Z,14.12
2022-09-16T18:03:48.206Z,14.04
2022-09-16T18:06:19.856Z,14.02
2022-09-16T18:08:52.173Z,13.95
2022-09-16T18:11:24.265Z,13.95
2022-09-16T18:13:56.166Z,13.94
2022-09-16T18:16:27.717Z,13.86
2022-09-16T18:18:59.685Z,13.85
2022-09-16T18:21:31.301Z,13.83
2022-09-16T18:24:03.228Z,13.79
2022-09-16T18:26:34.747Z,13.75
2022-09-16T18:29:09.923Z,13.72
2022-09-16T18:31:41.846Z,13.65
2022-09-16T18:34:13.733Z,13.60
2022-09-16T18:36:45.248Z,13.58
2022-09-16T18:39:17.053Z,13.56
2022-09-16T18:41:48.627Z,13.54
2022-09-16T18:44:20.195Z,13.51
2022-09-16T18:46:51.779Z,13.44
2022-09-16T18:49:26.416Z,13.49
2022-09-16T18:51:57.919Z,13.53
2022-09-16T18:54:29.905Z,13.53
2022-09-16T18:57:01.934Z,13.51
2022-09-16T18:59:34.524Z,13.55
2022-09-16T19:02:08.542Z,13.60
2022-09-16T19:04:40.558Z,13.62
2022-09-16T19:07:12.057Z,13.64
2022-09-16T19:09:45.836Z,13.62
2022-09-16T19:12:17.337Z,13.66
2022-09-16T19:14:49.269Z,13.71
2022-09-16T19:17:20.861Z,13.73
2022-09-16T19:19:52.714Z,13.67
2022-09-16T19:22:24.234Z,13.63
2022-09-16T19:24:55.788Z,13.63
2022-09-16T19:27:27.268Z,13.67
2022-09-16T19:29:59.124Z,13.68
2022-09-16T19:32:30.657Z,13.51
2022-09-16T19:35:03.238Z,13.52
2022-09-16T19:37:34.741Z,13.45
2022-09-16T19:40:06.729Z,13.36
2022-09-16T19:42:38.395Z,13.27
2022-09-16T19:45:10.567Z,13.32
2022-09-16T19:47:42.058Z,13.30
2022-09-16T19:50:14.099Z,13.25
2022-09-16T19:52:45.586Z,13.03
2022-09-16T19:55:17.378Z,12.83
2022-09-16T19:57:48.867Z,12.48
2022-09-16T20:00:20.391Z,12.28
2022-09-16T20:02:51.915Z,12.10
2022-09-16T20:05:24.220Z,11.92
2022-09-16T20:07:56.230Z,11.83
2022-09-16T20:10:28.224Z,11.64
2022-09-16T20:13:00.033Z,11.56
2022-09-16T20:15:31.553Z,11.28
2022-09-16T20:18:03.406Z,11.09
2022-09-16T20:20:34.919Z,10.92
2022-09-16T20:23:06.985Z,10.78
2022-09-16T20:25:38.570Z,10.74
2022-09-16T20:28:10.395Z,10.61
2022-09-16T20:30:41.871Z,10.68
2022-09-16T20:33:13.662Z,10.64
2022-09-16T20:35:45.264Z,10.54
2022-09-16T20:38:17.144Z,10.44
2022-09-16T20:40:48.702Z,10.42
2022-09-16T20:43:20.505Z,10.40
2022-09-16T20:45:52.027Z,10.42
2022-09-16T20:48:23.725Z,10.38
2022-09-16T20:50:55.236Z,10.47
2022-09-16T20:53:27.075Z,10.37
2022-09-16T20:55:58.555Z,10.36
2022-09-16T20:58:30.379Z,10.44
2022-09-16T21:01:01.997Z,10.41
2022-09-16T21:03:33.937Z,10.42
2022-09-16T21:06:05.420Z,10.34
2022-09-16T21:08:37.335Z,10.31
2022-09-16T21:11:11.371Z,10.24
2022-09-16T21:13:43.251Z,10.25
2022-09-16T21:16:15.445Z,10.31
2022-09-16T21:18:47.125Z,10.32
2022-09-16T21:21:19.534Z,10.29
2022-09-16T21:23:51.363Z,10.30
2022-09-16T21:26:22.853Z,10.29
2022-09-16T21:28:54.713Z,10.33
2022-09-16T21:31:26.389Z,10.31
2022-09-16T21:33:58.348Z,10.36
2022-09-16T21:36:29.959Z,10.41
2022-09-16T21:39:02.060Z,10.40
2022-09-16T21:41:33.726Z,10.45
2022-09-16T21:44:05.598Z,10.46
2022-09-16T21:46:41.603Z,10.46
2022-09-16T21:49:18.466Z,10.47
2022-09-16T21:51:50.012Z,10.50
2022-09-16T21:54:21.905Z,10.54
2022-09-16T21:56:53.449Z,10.53
2022-09-16T21:59:25.349Z,10.51
2022-09-16T22:02:01.482Z,10.47
2022-09-16T22:04:35.159Z,10.50
2022-09-16T22:07:10.707Z,10.51
2022-09-16T22:09:42.592Z,10.56
2022-09-16T22:12:14.093Z,10.59
2022-09-16T22:14:46.175Z,10.63
2022-09-16T22:17:18.487Z,10.63
2022-09-16T22:19:50.300Z,10.67
2022-09-16T22:22:21.827Z,10.68
2022-09-16T22:24:53.731Z,10.71
2022-09-16T22:27:25.271Z,10.72
2022-09-16T22:29:57.258Z,10.73
2022-09-16T22:32:28.786Z,10.72
2022-09-16T22:35:00.613Z,10.74
2022-09-16T22:37:32.115Z,10.74
2022-09-16T22:40:04.169Z,10.73
2022-09-16T22:42:35.785Z,10.73
2022-09-16T22:45:07.635Z,10.75
2022-09-16T22:47:39.132Z,10.82
2022-09-16T22:50:11.016Z,10.74
2022-09-16T22:52:42.515Z,10.77
2022-09-16T22:55:14.328Z,10.78
2022-09-16T22:57:45.848Z,10.87
2022-09-16T23:00:17.348Z,10.85
2022-09-16T23:02:48.851Z,10.87
2022-09-16T23:05:20.663Z,10.82
2022-09-16T23:07:52.164Z,10.81
2022-09-16T23:10:23.985Z,10.82
2022-09-16T23:12:55.538Z,10.87
2022-09-16T23:15:28.361Z,10.88
2022-09-16T23:18:00.250Z,10.88
2022-09-16T23:20:31.931Z,10.88
2022-09-16T23:23:03.799Z,10.86
2022-09-16T23:25:35.602Z,10.90
2022-09-16T23:28:07.106Z,10.91
2022-09-16T23:30:38.628Z,10.95
2022-09-16T23:33:10.137Z,10.95
2022-09-16T23:35:42.069Z,10.89
2022-09-16T23:38:13.592Z,10.89
2022-09-16T23:40:45.437Z,10.98
2022-09-16T23:43:16.896Z,10.95
2022-09-16T23:45:48.796Z,10.96
2022-09-16T23:48:20.284Z,11.02
2022-09-16T23:50:51.752Z,10.99
2022-09-16T23:53:23.520Z,11.04
2022-09-16T23:55:54.988Z,11.08
2022-09-16T23:58:26.746Z,11.05
